»·PEaware :: N6182G KPHX-KPRC

N6182G :: KPHX-KPRC

FLIGHT INFORMATION

Flight Status: Arrived
Operator: Privately registered:
United States
More flights under this callsign
Pilot: Paul A. (20189)
Aircraft: CESSNA 182 SKYLANE
(C182)
More flights by this aircraft type
Origin: KPHX Phoenix Sky Harbor Intl
United States
Destination: KPRC Love
United States
More flights between these airports :: More routes between these airports
Route: +
File this flight plan on PilotEdge
Remarks:
Altitude:
(Current/Filed)
6,500ft
Speed:
(Current/Filed)
120kts
Departed: 23-Nov-18 12:47 PM
Arrived: 23-Nov-18 01:25 PM
Distance/Time
Traveled:
76nm/0:38
Distance/Time
To Go:
Arrived

Flight Plot

Page will automatically refresh every two minutes.

Flight plan parsing failed; only flown route is shown


Map Options




Map Legend


Flown Route
Filed Route
Departure Airport
Arrival Airport
Navaid (VOR, NDB)
Fix

Horizontal Profiles

Position Reports

Time Latitude Longitude Heading Altitude Ground
Speed
23-Nov-18 12:35 33.443097 -112.022872 268 1138ft 0kts
23-Nov-18 12:36 33.443097 -112.022874 268 1138ft 0kts
23-Nov-18 12:37 33.443096 -112.022876 268 1138ft 0kts
23-Nov-18 12:38 33.443096 -112.022878 268 1138ft 0kts
23-Nov-18 12:39 33.443096 -112.022880 268 1138ft 0kts
23-Nov-18 12:40 33.443096 -112.022881 268 1138ft 0kts
23-Nov-18 12:41 33.443096 -112.022883 268 1138ft 0kts
23-Nov-18 12:42 33.443096 -112.022885 268 1138ft 0kts
23-Nov-18 12:43 33.443096 -112.022887 268 1138ft 0kts
23-Nov-18 12:44 33.443096 -112.022889 268 1138ft 0kts
23-Nov-18 12:45 33.442226 -112.023209 187 1138ft 6kts
23-Nov-18 12:46 33.441890 -112.024613 269 1138ft 9kts
23-Nov-18 12:47 33.441929 -112.028065 270 1138ft 5kts
23-Nov-18 12:48 33.441704 -112.029626 203 1138ft 0kts
23-Nov-18 12:49 33.440834 -112.028415 87 1138ft 39kts
23-Nov-18 12:50 33.444411 -112.006767 49 2084ft 70kts
23-Nov-18 12:51 33.458361 -111.987964 41 3279ft 77kts
23-Nov-18 12:52 33.479648 -111.964650 41 3797ft 137kts
23-Nov-18 12:53 33.512388 -111.938464 22 3797ft 142kts
23-Nov-18 12:54 33.549502 -111.941106 333 3806ft 140kts
23-Nov-18 12:55 33.583200 -111.965095 329 3801ft 141kts
23-Nov-18 12:56 33.614491 -111.987563 328 4354ft 113kts
23-Nov-18 12:57 33.641201 -112.006894 329 5002ft 127kts
23-Nov-18 12:58 33.674503 -112.030998 329 5003ft 145kts
23-Nov-18 12:59 33.708459 -112.054787 329 4988ft 137kts
23-Nov-18 13:00 33.741517 -112.077718 329 4997ft 137kts
23-Nov-18 13:01 33.773076 -112.095169 355 5744ft 119kts
23-Nov-18 13:02 33.806226 -112.098499 355 6482ft 125kts
23-Nov-18 13:03 33.844761 -112.102415 355 6502ft 144kts
23-Nov-18 13:04 33.885066 -112.106742 355 6500ft 146kts
23-Nov-18 13:05 33.925682 -112.111892 355 6496ft 148kts
23-Nov-18 13:06 33.966611 -112.112805 355 6498ft 144kts
23-Nov-18 13:07 34.006297 -112.113639 355 6499ft 141kts
23-Nov-18 13:08 34.045357 -112.114822 355 6499ft 139kts
23-Nov-18 13:09 34.084289 -112.116091 355 6500ft 139kts
23-Nov-18 13:10 34.123515 -112.119139 352 6508ft 144kts
23-Nov-18 13:11 34.163385 -112.122539 344 6502ft 141kts
23-Nov-18 13:12 34.201664 -112.131603 344 6500ft 139kts
23-Nov-18 13:13 34.239548 -112.140893 338 6498ft 137kts
23-Nov-18 13:14 34.275673 -112.155648 337 6500ft 137kts
23-Nov-18 13:15 34.312788 -112.170161 337 6503ft 141kts
23-Nov-18 13:16 34.350217 -112.184947 337 6501ft 140kts
23-Nov-18 13:17 34.387073 -112.199960 337 6496ft 138kts
23-Nov-18 13:18 34.421579 -112.214114 337 6494ft 126kts
23-Nov-18 13:19 34.454680 -112.227323 342 6489ft 127kts
23-Nov-18 13:20 34.487323 -112.246955 331 6544ft 136kts
23-Nov-18 13:21 34.517790 -112.271545 311 6514ft 121kts
23-Nov-18 13:22 34.541748 -112.305538 310 6332ft 134kts
23-Nov-18 13:23 34.565245 -112.334022 319 6416ft 104kts
23-Nov-18 13:24 34.588079 -112.354241 324 6360ft 104kts
23-Nov-18 13:25 34.610372 -112.379567 315 5995ft 112kts
23-Nov-18 13:26 34.630711 -112.402850 316 5370ft 91kts
23-Nov-18 13:27 34.646886 -112.421209 316 4989ft 54kts
23-Nov-18 13:28 34.648734 -112.424005 220 4989ft 0kts
23-Nov-18 13:29 34.649986 -112.426227 290 4989ft 12kts

Navigation Log

Ident Type
Flight plan parsing failed, navigation log unavailable